sensor_id;sensor_type;location;lat;lon;timestamp;temperature;humidity
35894;DHT22;21994;48.204;16.516;2022-07-18T00:01:58;13.40;99.90
35894;DHT22;21994;48.204;16.516;2022-07-18T00:04:25;13.40;99.90
35894;DHT22;21994;48.204;16.516;2022-07-18T00:06:54;13.40;99.90
35894;DHT22;21994;48.204;16.516;2022-07-18T00:09:20;13.30;99.90
35894;DHT22;21994;48.204;16.516;2022-07-18T00:11:48;13.30;99.90
35894;DHT22;21994;48.204;16.516;2022-07-18T00:14:14;13.30;99.90
35894;DHT22;21994;48.204;16.516;2022-07-18T00:16:40;13.20;99.90
35894;DHT22;21994;48.204;16.516;2022-07-18T00:19:06;13.20;99.90
35894;DHT22;21994;48.204;16.516;2022-07-18T00:21:33;13.10;99.90
35894;DHT22;21994;48.204;16.516;2022-07-18T00:24:00;13.10;99.90
35894;DHT22;21994;48.204;16.516;2022-07-18T00:26:26;13.10;99.90
35894;DHT22;21994;48.204;16.516;2022-07-18T00:28:52;13.00;99.90
35894;DHT22;21994;48.204;16.516;2022-07-18T00:31:18;13.00;99.90
35894;DHT22;21994;48.204;16.516;2022-07-18T00:33:43;12.90;99.90
35894;DHT22;21994;48.204;16.516;2022-07-18T00:36:10;12.90;99.90
35894;DHT22;21994;48.204;16.516;2022-07-18T00:38:36;12.90;99.90
35894;DHT22;21994;48.204;16.516;2022-07-18T00:41:03;12.90;99.90
35894;DHT22;21994;48.204;16.516;2022-07-18T00:43:29;12.80;99.90
35894;DHT22;21994;48.204;16.516;2022-07-18T00:45:55;12.80;99.90
35894;DHT22;21994;48.204;16.516;2022-07-18T00:48:21;12.80;99.90
35894;DHT22;21994;48.204;16.516;2022-07-18T00:50:47;12.80;99.90
35894;DHT22;21994;48.204;16.516;2022-07-18T00:53:13;12.80;99.90
35894;DHT22;21994;48.204;16.516;2022-07-18T00:55:41;12.70;99.90
35894;DHT22;21994;48.204;16.516;2022-07-18T00:58:09;12.70;99.90
35894;DHT22;21994;48.204;16.516;2022-07-18T01:00:36;12.60;99.90
35894;DHT22;21994;48.204;16.516;2022-07-18T01:03:21;12.60;99.90
35894;DHT22;21994;48.204;16.516;2022-07-18T01:05:47;12.60;99.90
35894;DHT22;21994;48.204;16.516;2022-07-18T01:08:13;12.60;99.90
35894;DHT22;21994;48.204;16.516;2022-07-18T01:10:39;12.50;99.90
35894;DHT22;21994;48.204;16.516;2022-07-18T01:13:05;12.50;99.90
35894;DHT22;21994;48.204;16.516;2022-07-18T01:15:31;12.50;99.90
35894;DHT22;21994;48.204;16.516;2022-07-18T01:17:57;12.40;99.90
35894;DHT22;21994;48.204;16.516;2022-07-18T01:20:28;12.40;99.90
35894;DHT22;21994;48.204;16.516;2022-07-18T01:22:54;12.40;99.90
35894;DHT22;21994;48.204;16.516;2022-07-18T01:25:20;12.30;99.90
35894;DHT22;21994;48.204;16.516;2022-07-18T01:27:46;12.30;99.90
35894;DHT22;21994;48.204;16.516;2022-07-18T01:30:12;12.20;99.90
35894;DHT22;21994;48.204;16.516;2022-07-18T01:32:38;12.20;99.90
35894;DHT22;21994;48.204;16.516;2022-07-18T01:35:04;12.20;99.90
35894;DHT22;21994;48.204;16.516;2022-07-18T01:37:30;12.20;99.90
35894;DHT22;21994;48.204;16.516;2022-07-18T01:39:56;12.20;99.90
35894;DHT22;21994;48.204;16.516;2022-07-18T01:42:22;12.20;99.90
35894;DHT22;21994;48.204;16.516;2022-07-18T01:44:48;12.10;99.90
35894;DHT22;21994;48.204;16.516;2022-07-18T01:47:14;12.10;99.90
35894;DHT22;21994;48.204;16.516;2022-07-18T01:49:41;12.00;99.90
35894;DHT22;21994;48.204;16.516;2022-07-18T01:52:08;12.00;99.90
35894;DHT22;21994;48.204;16.516;2022-07-18T01:54:36;12.00;99.90
35894;DHT22;21994;48.204;16.516;2022-07-18T01:57:04;11.90;99.90
35894;DHT22;21994;48.204;16.516;2022-07-18T01:59:31;11.90;99.90
35894;DHT22;21994;48.204;16.516;2022-07-18T02:01:57;11.90;99.90
35894;DHT22;21994;48.204;16.516;2022-07-18T02:04:23;11.80;99.90
35894;DHT22;21994;48.204;16.516;2022-07-18T02:07:08;11.70;99.90
35894;DHT22;21994;48.204;16.516;2022-07-18T02:09:34;11.70;99.90
35894;DHT22;21994;48.204;16.516;2022-07-18T02:12:00;11.70;99.90
35894;DHT22;21994;48.204;16.516;2022-07-18T02:14:26;11.60;99.90
35894;DHT22;21994;48.204;16.516;2022-07-18T02:16:52;11.60;99.90
35894;DHT22;21994;48.204;16.516;2022-07-18T02:19:18;11.60;99.90
35894;DHT22;21994;48.204;16.516;2022-07-18T02:21:44;11.50;99.90
35894;DHT22;21994;48.204;16.516;2022-07-18T02:24:09;11.50;99.90
35894;DHT22;21994;48.204;16.516;2022-07-18T02:26:35;11.50;99.90
35894;DHT22;21994;48.204;16.516;2022-07-18T02:29:01;11.40;99.90
35894;DHT22;21994;48.204;16.516;2022-07-18T02:31:27;11.40;99.90
35894;DHT22;21994;48.204;16.516;2022-07-18T02:33:53;11.40;99.90
35894;DHT22;21994;48.204;16.516;2022-07-18T02:36:19;11.30;99.90
35894;DHT22;21994;48.204;16.516;2022-07-18T02:38:44;11.30;99.90
35894;DHT22;21994;48.204;16.516;2022-07-18T02:41:10;11.30;99.90
35894;DHT22;21994;48.204;16.516;2022-07-18T02:43:36;11.30;99.90
35894;DHT22;21994;48.204;16.516;2022-07-18T02:46:02;11.30;99.90
35894;DHT22;21994;48.204;16.516;2022-07-18T02:48:28;11.20;99.90
35894;DHT22;21994;48.204;16.516;2022-07-18T02:50:54;11.20;99.90
35894;DHT22;21994;48.204;16.516;2022-07-18T02:53:20;11.20;99.90
35894;DHT22;21994;48.204;16.516;2022-07-18T02:55:49;11.20;99.90
35894;DHT22;21994;48.204;16.516;2022-07-18T02:58:16;11.10;99.90
35894;DHT22;21994;48.204;16.516;2022-07-18T03:00:43;11.10;99.90
35894;DHT22;21994;48.204;16.516;2022-07-18T03:03:10;11.10;99.90
35894;DHT22;21994;48.204;16.516;2022-07-18T03:05:36;11.10;99.90
35894;DHT22;21994;48.204;16.516;2022-07-18T03:08:02;11.10;99.90
35894;DHT22;21994;48.204;16.516;2022-07-18T03:10:28;11.10;99.90
35894;DHT22;21994;48.204;16.516;2022-07-18T03:12:53;11.00;99.90
35894;DHT22;21994;48.204;16.516;2022-07-18T03:15:19;11.00;99.90
35894;DHT22;21994;48.204;16.516;2022-07-18T03:17:45;10.90;99.90
35894;DHT22;21994;48.204;16.516;2022-07-18T03:20:12;10.90;99.90
35894;DHT22;21994;48.204;16.516;2022-07-18T03:22:38;10.90;99.90
35894;DHT22;21994;48.204;16.516;2022-07-18T03:25:04;10.90;99.90
35894;DHT22;21994;48.204;16.516;2022-07-18T03:27:30;10.90;99.90
35894;DHT22;21994;48.204;16.516;2022-07-18T03:29:56;11.00;99.90
35894;DHT22;21994;48.204;16.516;2022-07-18T03:32:22;11.00;99.90
35894;DHT22;21994;48.204;16.516;2022-07-18T03:34:48;11.00;99.90
35894;DHT22;21994;48.204;16.516;2022-07-18T03:37:14;11.10;99.90
35894;DHT22;21994;48.204;16.516;2022-07-18T03:39:39;11.10;99.90
35894;DHT22;21994;48.204;16.516;2022-07-18T03:42:05;11.00;99.90
35894;DHT22;21994;48.204;16.516;2022-07-18T03:44:31;11.00;99.90
35894;DHT22;21994;48.204;16.516;2022-07-18T03:46:57;11.00;99.90
35894;DHT22;21994;48.204;16.516;2022-07-18T03:49:23;11.00;99.90
35894;DHT22;21994;48.204;16.516;2022-07-18T03:51:49;11.00;99.90
35894;DHT22;21994;48.204;16.516;2022-07-18T03:54:15;11.00;99.90
35894;DHT22;21994;48.204;16.516;2022-07-18T03:56:41;11.10;99.90
35894;DHT22;21994;48.204;16.516;2022-07-18T03:59:07;11.10;99.90
35894;DHT22;21994;48.204;16.516;2022-07-18T04:01:33;11.30;99.90
35894;DHT22;21994;48.204;16.516;2022-07-18T04:03:59;11.30;99.90
35894;DHT22;21994;48.204;16.516;2022-07-18T04:06:25;11.30;99.90
35894;DHT22;21994;48.204;16.516;2022-07-18T04:08:51;11.30;99.90
35894;DHT22;21994;48.204;16.516;2022-07-18T04:11:17;11.30;99.90
35894;DHT22;21994;48.204;16.516;2022-07-18T04:13:45;11.40;99.90
35894;DHT22;21994;48.204;16.516;2022-07-18T04:16:11;11.40;99.90
35894;DHT22;21994;48.204;16.516;2022-07-18T04:18:37;11.40;99.90
35894;DHT22;21994;48.204;16.516;2022-07-18T04:21:02;11.50;99.90
35894;DHT22;21994;48.204;16.516;2022-07-18T04:23:28;11.60;99.90
35894;DHT22;21994;48.204;16.516;2022-07-18T04:25:54;11.60;99.90
35894;DHT22;21994;48.204;16.516;2022-07-18T04:28:20;11.70;99.90
35894;DHT22;21994;48.204;16.516;2022-07-18T04:30:46;11.80;99.90
35894;DHT22;21994;48.204;16.516;2022-07-18T04:33:12;11.80;99.90
35894;DHT22;21994;48.204;16.516;2022-07-18T04:35:39;11.90;99.90
35894;DHT22;21994;48.204;16.516;2022-07-18T04:38:08;12.00;99.90
35894;DHT22;21994;48.204;16.516;2022-07-18T04:40:35;12.00;99.90
35894;DHT22;21994;48.204;16.516;2022-07-18T04:43:01;12.10;99.90
35894;DHT22;21994;48.204;16.516;2022-07-18T04:45:27;12.20;99.90
35894;DHT22;21994;48.204;16.516;2022-07-18T04:47:53;12.30;99.90
35894;DHT22;21994;48.204;16.516;2022-07-18T04:50:21;12.40;99.90
35894;DHT22;21994;48.204;16.516;2022-07-18T04:52:48;12.50;99.90
35894;DHT22;21994;48.204;16.516;2022-07-18T04:55:15;12.60;99.90
35894;DHT22;21994;48.204;16.516;2022-07-18T04:57:42;12.70;99.90
35894;DHT22;21994;48.204;16.516;2022-07-18T05:00:17;12.80;99.90
35894;DHT22;21994;48.204;16.516;2022-07-18T05:02:46;12.90;99.90
35894;DHT22;21994;48.204;16.516;2022-07-18T05:05:15;13.00;99.90
35894;DHT22;21994;48.204;16.516;2022-07-18T05:07:43;13.10;99.90
35894;DHT22;21994;48.204;16.516;2022-07-18T05:10:12;13.10;99.90
35894;DHT22;21994;48.204;16.516;2022-07-18T05:12:40;13.20;99.90
35894;DHT22;21994;48.204;16.516;2022-07-18T05:15:09;13.40;99.90
35894;DHT22;21994;48.204;16.516;2022-07-18T05:17:37;13.60;99.90
35894;DHT22;21994;48.204;16.516;2022-07-18T05:20:05;13.80;99.90
35894;DHT22;21994;48.204;16.516;2022-07-18T05:22:33;13.90;99.90
35894;DHT22;21994;48.204;16.516;2022-07-18T05:25:00;14.20;99.90
35894;DHT22;21994;48.204;16.516;2022-07-18T05:27:27;14.40;99.90
35894;DHT22;21994;48.204;16.516;2022-07-18T05:29:53;14.70;99.90
35894;DHT22;21994;48.204;16.516;2022-07-18T05:32:18;14.80;99.90
35894;DHT22;21994;48.204;16.516;2022-07-18T05:34:44;14.80;99.90
35894;DHT22;21994;48.204;16.516;2022-07-18T05:37:10;14.70;99.90
35894;DHT22;21994;48.204;16.516;2022-07-18T05:39:36;14.80;99.90
35894;DHT22;21994;48.204;16.516;2022-07-18T05:42:03;14.80;99.90
35894;DHT22;21994;48.204;16.516;2022-07-18T05:44:29;15.10;99.90
35894;DHT22;21994;48.204;16.516;2022-07-18T05:46:55;15.30;99.90
35894;DHT22;21994;48.204;16.516;2022-07-18T05:49:21;15.50;99.90
35894;DHT22;21994;48.204;16.516;2022-07-18T05:51:47;15.70;99.90
35894;DHT22;21994;48.204;16.516;2022-07-18T05:54:13;15.80;99.90
35894;DHT22;21994;48.204;16.516;2022-07-18T05:56:46;16.00;99.90
35894;DHT22;21994;48.204;16.516;2022-07-18T05:59:13;16.30;99.90
35894;DHT22;21994;48.204;16.516;2022-07-18T06:01:39;16.20;99.90
35894;DHT22;21994;48.204;16.516;2022-07-18T06:04:05;16.40;99.90
35894;DHT22;21994;48.204;16.516;2022-07-18T06:06:31;16.70;99.90
35894;DHT22;21994;48.204;16.516;2022-07-18T06:08:57;16.70;99.90
35894;DHT22;21994;48.204;16.516;2022-07-18T06:11:23;16.90;99.90
35894;DHT22;21994;48.204;16.516;2022-07-18T06:13:49;17.00;99.90
35894;DHT22;21994;48.204;16.516;2022-07-18T06:16:15;17.10;99.90
35894;DHT22;21994;48.204;16.516;2022-07-18T06:18:41;17.10;99.90
35894;DHT22;21994;48.204;16.516;2022-07-18T06:21:07;17.10;99.90
35894;DHT22;21994;48.204;16.516;2022-07-18T06:23:33;17.20;99.90
35894;DHT22;21994;48.204;16.516;2022-07-18T06:26:01;17.30;99.90
35894;DHT22;21994;48.204;16.516;2022-07-18T06:28:28;17.50;99.90
35894;DHT22;21994;48.204;16.516;2022-07-18T06:30:55;17.60;99.90
35894;DHT22;21994;48.204;16.516;2022-07-18T06:33:21;17.70;99.90
35894;DHT22;21994;48.204;16.516;2022-07-18T06:35:47;17.70;99.90
35894;DHT22;21994;48.204;16.516;2022-07-18T06:38:15;17.70;99.90
35894;DHT22;21994;48.204;16.516;2022-07-18T06:40:41;18.00;99.90
35894;DHT22;21994;48.204;16.516;2022-07-18T06:43:08;18.00;99.90
35894;DHT22;21994;48.204;16.516;2022-07-18T06:45:34;18.10;99.30
35894;DHT22;21994;48.204;16.516;2022-07-18T06:48:01;18.20;99.50
35894;DHT22;21994;48.204;16.516;2022-07-18T06:50:27;18.40;99.10
35894;DHT22;21994;48.204;16.516;2022-07-18T06:52:53;18.50;99.30
35894;DHT22;21994;48.204;16.516;2022-07-18T06:55:19;18.60;99.30
35894;DHT22;21994;48.204;16.516;2022-07-18T06:57:45;18.60;99.30
35894;DHT22;21994;48.204;16.516;2022-07-18T07:00:13;18.90;98.50
35894;DHT22;21994;48.204;16.516;2022-07-18T07:02:45;19.20;97.80
35894;DHT22;21994;48.204;16.516;2022-07-18T07:05:14;19.40;98.00
35894;DHT22;21994;48.204;16.516;2022-07-18T07:07:42;19.50;97.30
35894;DHT22;21994;48.204;16.516;2022-07-18T07:10:08;19.70;95.60
35894;DHT22;21994;48.204;16.516;2022-07-18T07:12:46;19.90;95.90
35894;DHT22;21994;48.204;16.516;2022-07-18T07:15:14;20.20;95.30
35894;DHT22;21994;48.204;16.516;2022-07-18T07:17:41;20.40;94.90
35894;DHT22;21994;48.204;16.516;2022-07-18T07:20:08;20.70;93.70
35894;DHT22;21994;48.204;16.516;2022-07-18T07:22:49;20.90;92.80
35894;DHT22;21994;48.204;16.516;2022-07-18T07:25:18;21.20;94.10
35894;DHT22;21994;48.204;16.516;2022-07-18T07:27:45;21.50;93.20
35894;DHT22;21994;48.204;16.516;2022-07-18T07:30:12;21.90;93.80
35894;DHT22;21994;48.204;16.516;2022-07-18T07:32:40;22.20;92.60
35894;DHT22;21994;48.204;16.516;2022-07-18T07:35:09;22.50;92.20
35894;DHT22;21994;48.204;16.516;2022-07-18T07:37:50;22.80;92.40
35894;DHT22;21994;48.204;16.516;2022-07-18T07:40:17;23.00;90.80
35894;DHT22;21994;48.204;16.516;2022-07-18T07:42:44;23.30;90.00
35894;DHT22;21994;48.204;16.516;2022-07-18T07:45:11;23.60;91.20
35894;DHT22;21994;48.204;16.516;2022-07-18T07:47:37;23.70;87.40
35894;DHT22;21994;48.204;16.516;2022-07-18T07:50:05;23.60;88.70
35894;DHT22;21994;48.204;16.516;2022-07-18T07:52:32;23.70;89.10
35894;DHT22;21994;48.204;16.516;2022-07-18T07:54:58;23.80;87.70
35894;DHT22;21994;48.204;16.516;2022-07-18T07:57:24;23.70;87.60
35894;DHT22;21994;48.204;16.516;2022-07-18T07:59:49;23.60;88.50
35894;DHT22;21994;48.204;16.516;2022-07-18T08:02:16;23.50;86.20
35894;DHT22;21994;48.204;16.516;2022-07-18T08:04:42;23.40;85.10
35894;DHT22;21994;48.204;16.516;2022-07-18T08:07:08;23.50;89.50
35894;DHT22;21994;48.204;16.516;2022-07-18T08:09:34;23.90;86.60
35894;DHT22;21994;48.204;16.516;2022-07-18T08:12:00;24.50;84.10
35894;DHT22;21994;48.204;16.516;2022-07-18T08:14:26;24.80;85.30
35894;DHT22;21994;48.204;16.516;2022-07-18T08:16:52;25.10;82.90
35894;DHT22;21994;48.204;16.516;2022-07-18T08:19:18;25.40;80.20
35894;DHT22;21994;48.204;16.516;2022-07-18T08:21:44;25.90;79.10
35894;DHT22;21994;48.204;16.516;2022-07-18T08:24:10;25.80;77.10
35894;DHT22;21994;48.204;16.516;2022-07-18T08:26:35;26.00;78.50
35894;DHT22;21994;48.204;16.516;2022-07-18T08:29:05;26.10;76.60
35894;DHT22;21994;48.204;16.516;2022-07-18T08:31:31;26.60;75.90
35894;DHT22;21994;48.204;16.516;2022-07-18T08:33:57;26.80;74.20
35894;DHT22;21994;48.204;16.516;2022-07-18T08:36:23;27.10;75.20
35894;DHT22;21994;48.204;16.516;2022-07-18T08:38:50;27.50;77.10
35894;DHT22;21994;48.204;16.516;2022-07-18T08:41:17;27.80;78.20
35894;DHT22;21994;48.204;16.516;2022-07-18T08:43:46;27.80;74.10
35894;DHT22;21994;48.204;16.516;2022-07-18T08:46:12;27.60;74.20
35894;DHT22;21994;48.204;16.516;2022-07-18T08:48:39;27.80;75.60
35894;DHT22;21994;48.204;16.516;2022-07-18T08:51:08;27.60;72.70
35894;DHT22;21994;48.204;16.516;2022-07-18T08:53:35;28.00;69.90
35894;DHT22;21994;48.204;16.516;2022-07-18T08:56:04;28.30;69.50
35894;DHT22;21994;48.204;16.516;2022-07-18T08:58:30;28.40;69.00
35894;DHT22;21994;48.204;16.516;2022-07-18T09:00:56;28.40;75.30
35894;DHT22;21994;48.204;16.516;2022-07-18T09:03:24;28.50;74.10
35894;DHT22;21994;48.204;16.516;2022-07-18T09:08:30;29.00;70.90
35894;DHT22;21994;48.204;16.516;2022-07-18T09:10:58;29.40;69.00
35894;DHT22;21994;48.204;16.516;2022-07-18T09:13:38;29.80;67.50
35894;DHT22;21994;48.204;16.516;2022-07-18T09:16:10;29.60;66.70
35894;DHT22;21994;48.204;16.516;2022-07-18T09:18:41;29.60;66.90
35894;DHT22;21994;48.204;16.516;2022-07-18T09:21:18;29.70;66.50
35894;DHT22;21994;48.204;16.516;2022-07-18T09:23:51;29.70;65.90
35894;DHT22;21994;48.204;16.516;2022-07-18T09:26:41;29.90;61.80
35894;DHT22;21994;48.204;16.516;2022-07-18T09:29:14;30.20;64.70
35894;DHT22;21994;48.204;16.516;2022-07-18T09:31:48;29.90;64.30
35894;DHT22;21994;48.204;16.516;2022-07-18T09:34:40;30.20;61.30
35894;DHT22;21994;48.204;16.516;2022-07-18T09:37:10;30.70;61.30
35894;DHT22;21994;48.204;16.516;2022-07-18T09:39:37;30.60;63.90
35894;DHT22;21994;48.204;16.516;2022-07-18T09:42:14;31.10;60.20
35894;DHT22;21994;48.204;16.516;2022-07-18T09:44:40;30.80;60.70
35894;DHT22;21994;48.204;16.516;2022-07-18T09:47:06;31.00;65.60
35894;DHT22;21994;48.204;16.516;2022-07-18T09:49:33;31.50;59.30
35894;DHT22;21994;48.204;16.516;2022-07-18T09:52:09;31.10;61.00
35894;DHT22;21994;48.204;16.516;2022-07-18T09:54:44;31.40;60.00
35894;DHT22;21994;48.204;16.516;2022-07-18T09:57:26;31.80;58.10
35894;DHT22;21994;48.204;16.516;2022-07-18T09:59:53;32.10;57.50
35894;DHT22;21994;48.204;16.516;2022-07-18T10:02:19;32.50;55.30
35894;DHT22;21994;48.204;16.516;2022-07-18T10:04:45;32.70;57.70
35894;DHT22;21994;48.204;16.516;2022-07-18T10:07:11;33.10;54.70
35894;DHT22;21994;48.204;16.516;2022-07-18T10:09:38;33.50;55.20
35894;DHT22;21994;48.204;16.516;2022-07-18T10:12:05;33.10;55.70
35894;DHT22;21994;48.204;16.516;2022-07-18T10:14:32;33.00;56.50
35894;DHT22;21994;48.204;16.516;2022-07-18T10:16:59;33.10;55.70
35894;DHT22;21994;48.204;16.516;2022-07-18T10:19:26;33.40;56.60
35894;DHT22;21994;48.204;16.516;2022-07-18T10:21:52;33.60;57.20
35894;DHT22;21994;48.204;16.516;2022-07-18T10:24:20;34.00;52.20
35894;DHT22;21994;48.204;16.516;2022-07-18T10:29:38;34.30;52.60
35894;DHT22;21994;48.204;16.516;2022-07-18T10:32:05;34.90;50.70
35894;DHT22;21994;48.204;16.516;2022-07-18T10:34:35;35.10;52.20
35894;DHT22;21994;48.204;16.516;2022-07-18T10:39:42;35.50;51.30
35894;DHT22;21994;48.204;16.516;2022-07-18T10:44:36;35.80;50.20
35894;DHT22;21994;48.204;16.516;2022-07-18T10:57:37;35.40;45.40
35894;DHT22;21994;48.204;16.516;2022-07-18T11:05:31;34.20;45.30
35894;DHT22;21994;48.204;16.516;2022-07-18T11:16:00;33.80;47.00
35894;DHT22;21994;48.204;16.516;2022-07-18T11:21:28;33.70;50.40
35894;DHT22;21994;48.204;16.516;2022-07-18T11:24:09;33.00;47.20
35894;DHT22;21994;48.204;16.516;2022-07-18T11:26:43;33.00;49.80
35894;DHT22;21994;48.204;16.516;2022-07-18T11:29:12;32.90;51.90
35894;DHT22;21994;48.204;16.516;2022-07-18T11:31:55;33.20;49.00
35894;DHT22;21994;48.204;16.516;2022-07-18T11:34:24;32.40;49.00
35894;DHT22;21994;48.204;16.516;2022-07-18T11:36:51;31.50;47.20
35894;DHT22;21994;48.204;16.516;2022-07-18T11:39:31;31.10;48.00
35894;DHT22;21994;48.204;16.516;2022-07-18T11:41:57;31.60;53.80
35894;DHT22;21994;48.204;16.516;2022-07-18T11:44:24;31.80;54.30
35894;DHT22;21994;48.204;16.516;2022-07-18T11:49:32;31.80;52.00
35894;DHT22;21994;48.204;16.516;2022-07-18T11:51:59;31.70;48.00
35894;DHT22;21994;48.204;16.516;2022-07-18T11:54:25;31.90;52.10
35894;DHT22;21994;48.204;16.516;2022-07-18T11:56:55;31.70;53.60
35894;DHT22;21994;48.204;16.516;2022-07-18T11:59:22;31.60;49.40
35894;DHT22;21994;48.204;16.516;2022-07-18T12:01:48;31.70;52.30
35894;DHT22;21994;48.204;16.516;2022-07-18T12:04:20;31.60;52.90
35894;DHT22;21994;48.204;16.516;2022-07-18T12:07:26;31.60;51.50
35894;DHT22;21994;48.204;16.516;2022-07-18T12:09:53;31.70;52.30
35894;DHT22;21994;48.204;16.516;2022-07-18T12:12:21;31.40;52.30
35894;DHT22;21994;48.204;16.516;2022-07-18T12:14:59;31.40;49.50
35894;DHT22;21994;48.204;16.516;2022-07-18T12:17:27;31.10;50.30
35894;DHT22;21994;48.204;16.516;2022-07-18T12:20:09;31.20;48.00
35894;DHT22;21994;48.204;16.516;2022-07-18T12:23:08;31.20;52.50
35894;DHT22;21994;48.204;16.516;2022-07-18T12:25:43;31.20;46.50
35894;DHT22;21994;48.204;16.516;2022-07-18T12:28:15;31.20;50.10
35894;DHT22;21994;48.204;16.516;2022-07-18T12:30:42;31.40;48.80
35894;DHT22;21994;48.204;16.516;2022-07-18T12:33:08;31.60;48.00
35894;DHT22;21994;48.204;16.516;2022-07-18T12:35:36;31.30;49.00
35894;DHT22;21994;48.204;16.516;2022-07-18T12:38:08;31.40;49.80
35894;DHT22;21994;48.204;16.516;2022-07-18T12:43:29;31.30;53.00
35894;DHT22;21994;48.204;16.516;2022-07-18T12:45:58;31.40;52.20
35894;DHT22;21994;48.204;16.516;2022-07-18T12:48:27;31.40;51.40
35894;DHT22;21994;48.204;16.516;2022-07-18T12:51:08;31.40;49.10
35894;DHT22;21994;48.204;16.516;2022-07-18T12:53:37;31.40;50.50
35894;DHT22;21994;48.204;16.516;2022-07-18T12:56:05;31.50;50.10
35894;DHT22;21994;48.204;16.516;2022-07-18T12:58:31;31.50;52.80
35894;DHT22;21994;48.204;16.516;2022-07-18T13:00:57;31.50;51.90
35894;DHT22;21994;48.204;16.516;2022-07-18T13:03:23;31.40;46.70
35894;DHT22;21994;48.204;16.516;2022-07-18T13:05:49;31.40;55.90
35894;DHT22;21994;48.204;16.516;2022-07-18T13:08:15;31.30;52.50
35894;DHT22;21994;48.204;16.516;2022-07-18T13:10:43;31.10;49.00
35894;DHT22;21994;48.204;16.516;2022-07-18T13:13:09;31.20;50.70
35894;DHT22;21994;48.204;16.516;2022-07-18T13:15:35;31.40;47.40
35894;DHT22;21994;48.204;16.516;2022-07-18T13:18:03;31.20;48.40
35894;DHT22;21994;48.204;16.516;2022-07-18T13:20:29;31.30;50.40
35894;DHT22;21994;48.204;16.516;2022-07-18T13:22:56;31.30;50.40
35894;DHT22;21994;48.204;16.516;2022-07-18T13:25:22;31.20;47.00
35894;DHT22;21994;48.204;16.516;2022-07-18T13:27:49;31.20;49.90
35894;DHT22;21994;48.204;16.516;2022-07-18T13:30:16;31.60;52.50
35894;DHT22;21994;48.204;16.516;2022-07-18T13:32:41;31.50;48.90
35894;DHT22;21994;48.204;16.516;2022-07-18T13:35:11;31.40;50.80
35894;DHT22;21994;48.204;16.516;2022-07-18T13:37:37;31.80;51.60
35894;DHT22;21994;48.204;16.516;2022-07-18T13:40:03;31.60;48.60
35894;DHT22;21994;48.204;16.516;2022-07-18T13:42:32;31.30;46.70
35894;DHT22;21994;48.204;16.516;2022-07-18T13:44:58;31.10;46.50
35894;DHT22;21994;48.204;16.516;2022-07-18T13:47:24;31.50;47.20
35894;DHT22;21994;48.204;16.516;2022-07-18T13:49:50;31.70;49.50
35894;DHT22;21994;48.204;16.516;2022-07-18T13:52:16;31.60;49.70
35894;DHT22;21994;48.204;16.516;2022-07-18T13:54:42;31.60;48.80
35894;DHT22;21994;48.204;16.516;2022-07-18T13:57:08;31.80;48.40
35894;DHT22;21994;48.204;16.516;2022-07-18T13:59:34;31.80;52.60
35894;DHT22;21994;48.204;16.516;2022-07-18T14:02:00;32.30;50.70
35894;DHT22;21994;48.204;16.516;2022-07-18T14:04:26;32.30;48.40
35894;DHT22;21994;48.204;16.516;2022-07-18T14:06:52;31.80;46.00
35894;DHT22;21994;48.204;16.516;2022-07-18T14:09:18;31.40;45.40
35894;DHT22;21994;48.204;16.516;2022-07-18T14:11:44;31.70;50.20
35894;DHT22;21994;48.204;16.516;2022-07-18T14:14:10;31.40;47.50
35894;DHT22;21994;48.204;16.516;2022-07-18T14:16:36;31.10;48.90
35894;DHT22;21994;48.204;16.516;2022-07-18T14:19:03;31.30;48.00
35894;DHT22;21994;48.204;16.516;2022-07-18T14:21:29;32.10;50.30
35894;DHT22;21994;48.204;16.516;2022-07-18T14:23:55;32.40;45.80
35894;DHT22;21994;48.204;16.516;2022-07-18T14:26:21;32.40;47.10
35894;DHT22;21994;48.204;16.516;2022-07-18T14:28:47;32.60;48.10
35894;DHT22;21994;48.204;16.516;2022-07-18T14:31:12;32.80;50.00
35894;DHT22;21994;48.204;16.516;2022-07-18T14:33:38;32.50;43.90
35894;DHT22;21994;48.204;16.516;2022-07-18T14:36:05;32.60;46.30
35894;DHT22;21994;48.204;16.516;2022-07-18T14:38:30;32.30;47.20
35894;DHT22;21994;48.204;16.516;2022-07-18T14:40:56;32.40;51.90
35894;DHT22;21994;48.204;16.516;2022-07-18T14:43:22;32.50;47.50
35894;DHT22;21994;48.204;16.516;2022-07-18T14:45:48;32.40;47.80
35894;DHT22;21994;48.204;16.516;2022-07-18T14:48:15;32.70;47.40
35894;DHT22;21994;48.204;16.516;2022-07-18T14:50:40;32.90;46.80
35894;DHT22;21994;48.204;16.516;2022-07-18T14:53:06;33.00;47.70
35894;DHT22;21994;48.204;16.516;2022-07-18T14:55:32;32.30;43.30
35894;DHT22;21994;48.204;16.516;2022-07-18T14:57:58;32.60;46.40
35894;DHT22;21994;48.204;16.516;2022-07-18T15:00:24;33.00;47.20
35894;DHT22;21994;48.204;16.516;2022-07-18T15:02:50;32.80;49.90
35894;DHT22;21994;48.204;16.516;2022-07-18T15:05:16;33.00;50.00
35894;DHT22;21994;48.204;16.516;2022-07-18T15:07:42;33.30;48.20
35894;DHT22;21994;48.204;16.516;2022-07-18T15:10:09;33.00;47.60
35894;DHT22;21994;48.204;16.516;2022-07-18T15:12:35;33.00;46.70
35894;DHT22;21994;48.204;16.516;2022-07-18T15:15:01;32.80;47.90
35894;DHT22;21994;48.204;16.516;2022-07-18T15:17:27;32.20;46.50
35894;DHT22;21994;48.204;16.516;2022-07-18T15:19:53;31.80;48.00
35894;DHT22;21994;48.204;16.516;2022-07-18T15:22:19;32.20;45.80
35894;DHT22;21994;48.204;16.516;2022-07-18T15:24:45;32.60;45.30
35894;DHT22;21994;48.204;16.516;2022-07-18T15:27:11;33.00;48.30
35894;DHT22;21994;48.204;16.516;2022-07-18T15:29:36;33.30;47.30
35894;DHT22;21994;48.204;16.516;2022-07-18T15:32:02;33.50;46.40
35894;DHT22;21994;48.204;16.516;2022-07-18T15:34:34;33.20;49.90
35894;DHT22;21994;48.204;16.516;2022-07-18T15:37:03;33.70;46.40
35894;DHT22;21994;48.204;16.516;2022-07-18T15:39:30;33.70;50.10
35894;DHT22;21994;48.204;16.516;2022-07-18T15:41:57;33.70;48.10
35894;DHT22;21994;48.204;16.516;2022-07-18T15:44:24;33.80;51.80
35894;DHT22;21994;48.204;16.516;2022-07-18T15:46:50;33.80;45.90
35894;DHT22;21994;48.204;16.516;2022-07-18T15:49:16;33.80;46.10
35894;DHT22;21994;48.204;16.516;2022-07-18T15:51:42;33.70;46.30
35894;DHT22;21994;48.204;16.516;2022-07-18T15:54:12;33.50;44.90
35894;DHT22;21994;48.204;16.516;2022-07-18T15:56:39;33.70;48.90
35894;DHT22;21994;48.204;16.516;2022-07-18T15:59:05;33.70;47.40
35894;DHT22;21994;48.204;16.516;2022-07-18T16:01:31;33.60;46.70